createdAt,value
2018-07-22T00:00:52.424Z,20.00
2018-07-22T00:05:55.565Z,19.90
2018-07-22T00:10:58.688Z,19.90
2018-07-22T00:16:01.855Z,19.90
2018-07-22T00:21:04.933Z,19.80
2018-07-22T00:26:08.054Z,19.80
2018-07-22T00:31:11.149Z,19.80
2018-07-22T00:36:14.232Z,19.70
2018-07-22T00:41:17.381Z,19.50
2018-07-22T00:46:20.538Z,19.50
2018-07-22T00:51:32.730Z,19.60
2018-07-22T00:56:36.194Z,19.60
2018-07-22T01:01:41.723Z,19.50
2018-07-22T01:06:45.057Z,19.50
2018-07-22T01:11:49.453Z,19.50
2018-07-22T01:16:52.865Z,19.40
2018-07-22T01:21:56.870Z,19.20
2018-07-22T01:27:02.706Z,19.10
2018-07-22T01:32:05.823Z,19.20
2018-07-22T01:37:08.900Z,19.10
2018-07-22T01:42:12.020Z,19.10
2018-07-22T01:47:15.127Z,19.00
2018-07-22T01:52:18.224Z,19.00
2018-07-22T01:57:21.282Z,19.00
2018-07-22T02:02:25.417Z,19.00
2018-07-22T02:07:28.665Z,19.00
2018-07-22T02:12:33.597Z,18.90
2018-07-22T02:17:36.641Z,18.90
2018-07-22T02:22:39.736Z,18.90
2018-07-22T02:27:42.848Z,18.90
2018-07-22T02:32:45.970Z,18.90
2018-07-22T02:37:50.149Z,18.80
2018-07-22T02:42:57.181Z,18.80
2018-07-22T02:48:00.316Z,18.80
2018-07-22T02:53:07.594Z,18.90
2018-07-22T02:58:10.708Z,18.90
2018-07-22T03:03:13.756Z,18.90
2018-07-22T03:08:17.905Z,18.90
2018-07-22T03:13:21.897Z,18.90
2018-07-22T03:18:25.537Z,18.90
2018-07-22T03:23:28.944Z,18.90
2018-07-22T03:28:32.045Z,18.90
2018-07-22T03:33:35.124Z,18.80
2018-07-22T03:38:39.205Z,18.80
2018-07-22T03:43:44.426Z,18.90
2018-07-22T03:48:47.477Z,18.90
2018-07-22T03:53:50.680Z,19.00
2018-07-22T03:58:53.741Z,19.00
2018-07-22T04:03:56.996Z,19.00
2018-07-22T04:09:00.124Z,19.00
2018-07-22T04:14:03.184Z,19.00
2018-07-22T04:19:06.240Z,19.10
2018-07-22T04:24:09.333Z,19.00
2018-07-22T04:29:12.557Z,19.10
2018-07-22T04:34:15.701Z,19.10
2018-07-22T04:39:18.971Z,19.10
2018-07-22T04:44:24.201Z,19.20
2018-07-22T04:49:27.269Z,19.20
2018-07-22T04:54:30.484Z,19.30
2018-07-22T04:59:42.411Z,19.40
2018-07-22T05:04:47.925Z,19.40
2018-07-22T05:09:51.600Z,19.50
2018-07-22T05:14:54.812Z,19.60
2018-07-22T05:19:57.969Z,19.60
2018-07-22T05:25:01.126Z,19.70
2018-07-22T05:30:04.229Z,19.70
2018-07-22T05:35:07.316Z,19.80
2018-07-22T05:40:11.611Z,19.90
2018-07-22T05:45:14.925Z,20.00
2018-07-22T05:50:18.017Z,20.20
2018-07-22T05:55:21.236Z,20.30
2018-07-22T06:00:25.881Z,20.50
2018-07-22T06:05:28.957Z,20.60
2018-07-22T06:10:32.076Z,20.70
2018-07-22T06:15:36.564Z,20.80
2018-07-22T06:20:41.601Z,21.00
2018-07-22T06:25:44.665Z,21.10
2018-07-22T06:30:49.345Z,21.20
2018-07-22T06:35:52.590Z,21.30
2018-07-22T06:40:55.617Z,21.40
2018-07-22T06:45:58.685Z,21.40
2018-07-22T06:51:02.182Z,21.40
2018-07-22T06:56:05.296Z,21.40
2018-07-22T07:01:09.504Z,21.50
2018-07-22T07:06:12.609Z,21.50
2018-07-22T07:11:18.141Z,21.60
2018-07-22T07:16:21.269Z,21.70
2018-07-22T07:21:24.368Z,21.90
2018-07-22T07:26:27.449Z,22.00
2018-07-22T07:31:30.488Z,22.20
2018-07-22T07:36:34.163Z,22.40
2018-07-22T07:41:37.629Z,22.50
2018-07-22T07:46:40.716Z,22.70
2018-07-22T07:51:43.990Z,22.80
2018-07-22T07:56:47.122Z,22.90
2018-07-22T08:01:50.328Z,23.00
2018-07-22T08:06:53.509Z,23.20
2018-07-22T08:11:56.552Z,23.30
2018-07-22T08:16:59.668Z,23.50
2018-07-22T08:22:02.855Z,23.60
2018-07-22T08:27:05.909Z,23.80
2018-07-22T08:32:10.016Z,24.00
2018-07-22T08:37:14.674Z,24.10
2018-07-22T08:42:21.649Z,24.20
2018-07-22T08:47:29.665Z,24.40
2018-07-22T09:03:35.555Z,24.80
2018-07-22T09:08:38.881Z,24.90
2018-07-22T09:13:42.793Z,24.90
2018-07-22T09:18:46.066Z,25.00
2018-07-22T09:23:50.113Z,25.00
2018-07-22T09:28:54.294Z,25.10
2018-07-22T09:34:12.010Z,25.20
2018-07-22T09:39:27.445Z,25.30
2018-07-22T09:44:32.402Z,25.40
2018-07-22T09:49:37.599Z,25.50
2018-07-22T09:54:43.665Z,25.60
2018-07-22T09:59:49.701Z,25.70
2018-07-22T10:04:53.092Z,25.80
2018-07-22T10:09:57.170Z,25.70
2018-07-22T10:15:04.688Z,25.80
2018-07-22T10:20:14.877Z,25.90
2018-07-22T10:25:18.164Z,26.10
2018-07-22T10:30:24.595Z,26.10
2018-07-22T10:35:29.387Z,26.20
2018-07-22T10:40:34.500Z,26.30
2018-07-22T10:45:40.758Z,26.40
2018-07-22T10:50:48.669Z,26.40
2018-07-22T11:00:56.836Z,26.50
2018-07-22T11:06:03.202Z,26.60
2018-07-22T11:11:11.015Z,26.60
2018-07-22T11:16:14.625Z,26.60
2018-07-22T11:21:23.940Z,26.70
2018-07-22T11:26:27.895Z,26.70
2018-07-22T11:31:31.249Z,26.70
2018-07-22T11:36:34.432Z,26.80
2018-07-22T11:41:45.439Z,26.90
2018-07-22T11:46:49.342Z,27.00
2018-07-22T11:51:52.688Z,27.00
2018-07-22T11:56:57.365Z,27.00
2018-07-22T12:02:00.720Z,27.00
2018-07-22T12:07:14.595Z,27.10
2018-07-22T12:12:24.252Z,27.10
2018-07-22T12:17:31.535Z,27.20
2018-07-22T12:22:40.816Z,27.20
2018-07-22T12:27:44.531Z,27.40
2018-07-22T12:32:51.477Z,27.40
2018-07-22T12:38:19.262Z,27.50
2018-07-22T12:43:28.031Z,27.50
2018-07-22T12:53:53.093Z,27.70
2018-07-22T12:58:57.418Z,27.70
2018-07-22T13:04:28.619Z,27.80
2018-07-22T13:09:40.633Z,27.90
2018-07-22T13:14:45.474Z,28.00
2018-07-22T13:19:52.539Z,28.00
2018-07-22T13:24:59.789Z,28.10
2018-07-22T13:30:04.090Z,28.20
2018-07-22T13:35:12.550Z,28.20
2018-07-22T13:45:23.748Z,28.20
2018-07-22T13:50:30.001Z,28.30
2018-07-22T13:55:44.529Z,28.30
2018-07-22T14:00:49.997Z,28.40
2018-07-22T14:11:03.398Z,28.40
2018-07-22T14:16:08.321Z,28.50
2018-07-22T14:26:17.318Z,28.70
2018-07-22T14:31:37.442Z,28.60
2018-07-22T14:36:40.649Z,28.70
2018-07-22T14:41:44.408Z,28.70
2018-07-22T14:46:52.446Z,28.80
2018-07-22T14:51:55.721Z,28.80
2018-07-22T14:56:59.059Z,28.90
2018-07-22T15:02:05.145Z,29.00
2018-07-22T15:07:13.250Z,29.10
2018-07-22T15:12:16.417Z,29.10
2018-07-22T15:17:23.212Z,29.20
2018-07-22T15:22:29.647Z,29.20
2018-07-22T15:27:35.923Z,29.20
2018-07-22T15:32:39.116Z,29.30
2018-07-22T15:37:45.964Z,29.40
2018-07-22T15:42:52.204Z,29.40
2018-07-22T15:48:00.902Z,29.50
2018-07-22T19:19:37.080Z,26.10
2018-07-22T19:24:40.256Z,25.60
2018-07-22T19:29:43.308Z,25.50
2018-07-22T19:34:46.374Z,25.50
2018-07-22T19:39:49.477Z,25.30
2018-07-22T19:44:52.568Z,25.30
2018-07-22T19:49:55.898Z,25.10
2018-07-22T19:54:58.948Z,25.00
2018-07-22T20:00:02.009Z,25.00
2018-07-22T20:05:05.302Z,24.80
2018-07-22T20:10:08.441Z,24.70
2018-07-22T20:15:11.492Z,24.60
2018-07-22T20:20:15.072Z,24.50
2018-07-22T20:25:18.164Z,24.50
2018-07-22T20:30:21.284Z,24.40
2018-07-22T20:35:24.376Z,24.20
2018-07-22T20:40:27.520Z,24.00
2018-07-22T20:45:30.576Z,23.80
2018-07-22T20:50:33.782Z,23.70
2018-07-22T20:55:36.854Z,23.70
2018-07-22T21:00:39.928Z,23.60
2018-07-22T21:05:43.095Z,23.50
2018-07-22T21:10:46.265Z,23.40
2018-07-22T21:15:49.424Z,23.60
2018-07-22T21:20:52.634Z,23.40
2018-07-22T21:25:55.654Z,23.20
2018-07-22T21:30:58.890Z,23.00
2018-07-22T21:36:01.989Z,22.90
2018-07-22T21:41:05.158Z,22.90
2018-07-22T21:46:08.208Z,22.80
2018-07-22T21:51:15.137Z,22.60
2018-07-22T21:56:22.363Z,22.40
2018-07-22T22:01:25.488Z,22.30
2018-07-22T22:06:29.833Z,22.20
2018-07-22T22:11:32.924Z,22.10
2018-07-22T22:16:37.573Z,22.00
2018-07-22T22:21:40.654Z,21.90
2018-07-22T22:26:48.515Z,21.90
2018-07-22T22:31:54.849Z,21.80
2018-07-22T22:42:17.916Z,21.60
2018-07-22T22:47:20.985Z,21.30
2018-07-22T22:52:30.877Z,21.10
2018-07-22T22:57:35.823Z,21.10
2018-07-22T23:02:41.024Z,20.90
2018-07-22T23:07:44.997Z,20.70
2018-07-22T23:12:49.983Z,20.60
2018-07-22T23:17:55.105Z,20.40
2018-07-22T23:22:58.209Z,20.20
2018-07-22T23:28:02.335Z,20.10
2018-07-22T23:33:08.253Z,20.00
2018-07-22T23:38:14.519Z,19.80
2018-07-22T23:43:18.903Z,19.60
2018-07-22T23:48:28.933Z,19.50
2018-07-22T23:53:34.709Z,19.40
2018-07-22T23:58:41.572Z,19.30
